Airport ID:KJWN
Update Time (UTC):19/01/2020 19:58
Wind Speed (Knots):10
Wind Direction (Magnetic):340
Temperature (°C):1
Dew Point (°C):-10
Humidity (%):43
Altimeter (inHg):30.31
Density Altitude (Feet):
Visibility (Miles):10+
Clouds (Hundreds of feet):CLR
Present Weather:
METAR:METAR KJWN 191955Z AUTO 33013G19KT 10SM CLR 01/M10 A3031 RMK A01

The data displayed is for advisory purposes only and is not to be used for flight planning or operations.

This page is not automatically refreshed. Reload the page to see current data.